Terminal Aerodrome Forecast
Issued by NWS

Home | Current Version | Previous Version | Text Only | Print | Product List | Glossary On
Versions: 1 2 3 4 5 6 7 8 9 10 11 12 13 14 15 16 17 18 19 20 21 22 23 24 25 26 27 28 29
000
FTUS45 KPSR 011100
TAFIWA
TAF
KIWA 011129Z 0112/0212 12007KT P6SM FEW060 BKN080 OVC100
     FM012100 17010KT P6SM SCT060 BKN080
     FM020600 15007KT P6SM VCSH SCT040 BKN060 OVC080
      AMD LTD TO CLD VIS AND WIND TIL 011300=

USA.gov is the U.S. government's official web portal to all federal, state and local government web resources and services.